Time;durP1;ratioP1;P1;durP2;ratioP2;P2;SDS_P1;SDS_P2;PMS_P1;PMS_P2;Temp;Humidity;BMP_temperature;BMP_pressure;BME280_temperature;BME280_humidity;BME280_pressure;Samples;Min_cycle;Max_cycle;Signal;HPM_P1;HPM_P2
2023/01/23 00:00:54;;;;;;;7.22;4.38;;;2.40;99.90;;;;;;6219254;23;19996;-76
2023/01/23 00:03:20;;;;;;;8.38;4.70;;;2.40;99.90;;;;;;6217805;23;20004;-75
2023/01/23 00:05:45;;;;;;;8.50;5.80;;;2.40;99.90;;;;;;6220031;23;20039;-75
2023/01/23 00:08:11;;;;;;;7.15;4.65;;;2.30;99.90;;;;;;6217363;23;20005;-76
2023/01/23 00:10:37;;;;;;;7.25;5.05;;;2.30;99.90;;;;;;6219536;23;20004;-76
2023/01/23 00:13:03;;;;;;;8.52;5.72;;;2.30;99.90;;;;;;6219374;23;19997;-75
2023/01/23 00:15:31;;;;;;;10.00;5.82;;;2.30;99.90;;;;;;6220171;23;20074;-75
2023/01/23 00:17:57;;;;;;;9.13;5.55;;;2.20;99.90;;;;;;6221515;23;20005;-77
2023/01/23 00:20:23;;;;;;;8.43;5.40;;;2.30;99.90;;;;;;6220236;23;20672;-76
2023/01/23 00:22:49;;;;;;;7.07;4.82;;;2.20;99.90;;;;;;6221930;23;20004;-76
2023/01/23 00:25:14;;;;;;;7.53;4.68;;;2.20;99.90;;;;;;6221613;23;20001;-76
2023/01/23 00:27:40;;;;;;;7.63;5.10;;;2.20;99.90;;;;;;6221870;23;20068;-75
2023/01/23 00:30:06;;;;;;;7.43;4.97;;;2.20;99.90;;;;;;6220235;23;20023;-75
2023/01/23 00:32:32;;;;;;;10.00;5.85;;;2.20;99.90;;;;;;6221707;23;20004;-76
2023/01/23 00:34:59;;;;;;;8.55;5.10;;;2.20;99.90;;;;;;6220275;23;20028;-75
2023/01/23 00:37:25;;;;;;;8.18;4.93;;;2.20;99.90;;;;;;6221607;23;20011;-75
2023/01/23 00:39:50;;;;;;;8.75;5.18;;;2.20;99.90;;;;;;6221949;23;19996;-76
2023/01/23 00:42:16;;;;;;;7.97;4.78;;;2.20;99.90;;;;;;6219934;23;20422;-76
2023/01/23 00:44:42;;;;;;;7.75;4.70;;;2.20;99.90;;;;;;6221718;23;20330;-75
2023/01/23 00:47:07;;;;;;;8.10;5.03;;;2.10;99.90;;;;;;6221984;23;20005;-75
2023/01/23 00:49:33;;;;;;;8.23;4.88;;;2.10;99.90;;;;;;6220414;23;20005;-75
2023/01/23 00:51:59;;;;;;;7.85;4.75;;;2.10;99.90;;;;;;6221863;23;20027;-75
2023/01/23 00:54:25;;;;;;;7.60;4.47;;;2.10;99.90;;;;;;6221697;23;20000;-76
2023/01/23 00:56:51;;;;;;;7.55;4.55;;;2.10;99.90;;;;;;6219747;23;20011;-75
2023/01/23 00:59:17;;;;;;;5.88;4.15;;;2.10;99.90;;;;;;6221607;23;19996;-75
2023/01/23 01:01:43;;;;;;;7.07;4.45;;;2.10;99.90;;;;;;6221463;23;20019;-75
2023/01/23 01:04:09;;;;;;;6.95;4.40;;;2.10;99.90;;;;;;6221404;23;19997;-76
2023/01/23 01:06:34;;;;;;;7.47;4.30;;;2.10;99.90;;;;;;6219691;23;20062;-76
2023/01/23 01:09:00;;;;;;;6.35;4.45;;;2.10;99.90;;;;;;6219617;23;20005;-76
2023/01/23 01:11:26;;;;;;;6.53;4.70;;;2.10;99.90;;;;;;6221503;23;20492;-76
2023/01/23 01:13:51;;;;;;;5.72;3.53;;;2.10;99.90;;;;;;6220017;23;20015;-75
2023/01/23 01:16:18;;;;;;;5.90;3.97;;;2.10;99.90;;;;;;6221341;23;20008;-76
2023/01/23 01:18:44;;;;;;;6.88;3.83;;;2.10;99.90;;;;;;6221369;23;20000;-76
2023/01/23 01:21:12;;;;;;;5.72;3.95;;;2.20;99.90;;;;;;6221394;23;19996;-77
2023/01/23 01:23:39;;;;;;;6.20;3.83;;;2.10;99.90;;;;;;6221702;23;20369;-77
2023/01/23 01:26:06;;;;;;;9.02;4.50;;;2.20;99.90;;;;;;6220853;23;20434;-77
2023/01/23 01:28:34;;;;;;;6.70;3.97;;;2.20;99.90;;;;;;6221025;23;20012;-77
2023/01/23 01:31:12;;;;;;;6.05;3.67;;;2.20;99.90;;;;;;6220993;23;20050;-77
2023/01/23 01:33:39;;;;;;;7.07;4.38;;;2.20;99.90;;;;;;6221261;23;20007;-77
2023/01/23 01:36:10;;;;;;;5.85;3.58;;;2.20;99.90;;;;;;6221103;23;20007;-77
2023/01/23 01:38:36;;;;;;;5.20;3.22;;;2.20;99.90;;;;;;6219637;23;20000;-77
2023/01/23 01:41:02;;;;;;;7.10;3.60;;;2.20;99.90;;;;;;6219285;23;20437;-77
2023/01/23 01:43:28;;;;;;;6.30;4.25;;;2.20;99.90;;;;;;6221161;23;20007;-77
2023/01/23 01:46:18;;;;;;;6.38;3.85;;;2.20;99.90;;;;;;6221151;23;19996;-77
2023/01/23 01:48:55;;;;;;;6.63;3.67;;;2.10;99.90;;;;;;6219430;23;20005;-77
2023/01/23 01:51:27;;;;;;;5.15;3.35;;;2.10;99.90;;;;;;6219730;23;20009;-77
2023/01/23 01:54:13;;;;;;;5.97;4.00;;;2.10;99.90;;;;;;6221588;23;20314;-77
2023/01/23 01:56:51;;;;;;;6.63;3.53;;;2.10;99.90;;;;;;6219261;23;20062;-77
2023/01/23 01:59:18;;;;;;;5.70;3.97;;;2.10;99.90;;;;;;6221102;23;20402;-77
2023/01/23 02:01:48;;;;;;;6.93;4.05;;;2.10;99.90;;;;;;6219611;23;20007;-76
2023/01/23 02:04:15;;;;;;;6.55;3.97;;;2.10;99.90;;;;;;6221013;23;20008;-76
2023/01/23 02:06:41;;;;;;;5.45;3.60;;;2.10;99.90;;;;;;6220993;23;20027;-77
2023/01/23 02:09:17;;;;;;;6.05;4.13;;;2.20;99.90;;;;;;6219711;23;20024;-77
2023/01/23 02:11:44;;;;;;;6.18;3.15;;;2.10;99.90;;;;;;6220444;23;20004;-77
2023/01/23 02:14:10;;;;;;;5.82;3.35;;;2.20;99.90;;;;;;6219325;23;20079;-76
2023/01/23 02:16:39;;;;;;;5.82;3.88;;;2.20;99.90;;;;;;6220353;23;20039;-76
2023/01/23 02:19:17;;;;;;;6.45;3.53;;;2.10;99.90;;;;;;6219102;23;20338;-76
2023/01/23 02:21:47;;;;;;;6.95;4.03;;;2.10;99.90;;;;;;6220696;23;19997;-77
2023/01/23 02:24:27;;;;;;;6.75;4.00;;;2.20;99.90;;;;;;6220695;23;19997;-76
2023/01/23 02:26:53;;;;;;;4.82;2.92;;;2.10;99.90;;;;;;6220518;23;20425;-76
2023/01/23 02:29:19;;;;;;;6.20;3.47;;;2.10;99.90;;;;;;6220375;23;20039;-76
2023/01/23 02:31:45;;;;;;;5.43;3.72;;;2.20;99.90;;;;;;6220332;23;20005;-77
2023/01/23 02:34:12;;;;;;;6.63;3.97;;;2.10;99.90;;;;;;6220532;23;20426;-76
2023/01/23 02:36:41;;;;;;;5.80;3.53;;;2.10;99.90;;;;;;6220369;23;20366;-77
2023/01/23 02:39:12;;;;;;;6.03;3.67;;;2.10;99.90;;;;;;6219992;23;20028;-77
2023/01/23 02:41:42;;;;;;;6.35;3.85;;;2.10;99.90;;;;;;6218935;23;20090;-78
2023/01/23 02:44:18;;;;;;;7.70;3.75;;;2.00;99.90;;;;;;6220079;23;19996;-78
2023/01/23 02:46:44;;;;;;;6.43;3.70;;;2.10;99.90;;;;;;6219191;23;20011;-77
2023/01/23 02:49:10;;;;;;;5.57;3.40;;;2.10;99.90;;;;;;6220451;23;20028;-78
2023/01/23 02:51:36;;;;;;;6.32;3.60;;;2.00;99.90;;;;;;6220353;23;20001;-78
2023/01/23 02:54:02;;;;;;;7.28;4.38;;;2.00;99.90;;;;;;6220456;23;20001;-77
2023/01/23 02:56:28;;;;;;;5.97;3.25;;;2.00;99.90;;;;;;6220312;23;20381;-77
2023/01/23 03:01:37;;;;;;;5.40;3.53;;;2.00;99.90;;;;;;6220490;23;20011;-77
2023/01/23 03:04:05;;;;;;;5.57;3.83;;;1.90;99.90;;;;;;6219214;23;20016;-77
2023/01/23 03:06:37;;;;;;;5.53;3.25;;;1.90;99.90;;;;;;6220578;23;20000;-77
2023/01/23 03:09:10;;;;;;;6.95;3.90;;;1.90;99.90;;;;;;6220521;23;20033;-78
2023/01/23 03:11:38;;;;;;;6.15;3.42;;;1.90;99.90;;;;;;6218529;23;20059;-77
2023/01/23 03:14:23;;;;;;;5.97;4.20;;;1.90;99.90;;;;;;6218904;23;20047;-77
2023/01/23 03:16:51;;;;;;;6.85;3.45;;;1.80;99.90;;;;;;6219921;23;20005;-77
2023/01/23 03:19:19;;;;;;;7.07;3.78;;;1.80;99.90;;;;;;6220285;23;20055;-77
2023/01/23 03:21:45;;;;;;;6.53;3.70;;;1.80;99.90;;;;;;6219081;23;20086;-77
2023/01/23 03:24:12;;;;;;;5.90;3.92;;;1.70;99.90;;;;;;6220643;23;20004;-77
2023/01/23 03:26:40;;;;;;;5.30;3.65;;;1.80;99.90;;;;;;6219956;23;20005;-77
2023/01/23 03:31:50;;;;;;;5.80;3.30;;;1.80;99.90;;;;;;6220021;23;20016;-78
2023/01/23 03:34:20;;;;;;;5.18;3.30;;;1.80;99.90;;;;;;6219966;23;20001;-76
2023/01/23 03:36:47;;;;;;;5.53;3.33;;;1.80;99.90;;;;;;6219999;23;20024;-77
2023/01/23 03:41:57;;;;;;;5.85;3.90;;;1.80;99.90;;;;;;6219880;23;20012;-76
2023/01/23 03:44:23;;;;;;;5.65;3.42;;;1.80;99.90;;;;;;6218891;23;20005;-76
2023/01/23 03:46:50;;;;;;;5.80;3.35;;;1.80;99.90;;;;;;6220049;23;20307;-76
2023/01/23 03:49:16;;;;;;;6.13;3.83;;;1.80;99.90;;;;;;6218773;23;20008;-76
2023/01/23 03:51:42;;;;;;;5.70;3.75;;;1.80;99.90;;;;;;6222140;23;20016;-77
2023/01/23 03:54:08;;;;;;;5.80;3.60;;;1.80;99.90;;;;;;6222069;23;20008;-76
2023/01/23 03:56:34;;;;;;;6.53;4.10;;;1.80;99.90;;;;;;6219919;23;20039;-77
2023/01/23 03:59:00;;;;;;;4.85;3.05;;;1.80;99.90;;;;;;6222056;23;19997;-77
2023/01/23 04:01:25;;;;;;;4.85;3.30;;;1.80;99.90;;;;;;6221871;23;20001;-78
2023/01/23 04:03:51;;;;;;;4.10;3.20;;;1.80;99.90;;;;;;6221888;23;20024;-78
2023/01/23 04:06:18;;;;;;;5.60;3.13;;;1.80;99.90;;;;;;6220676;23;20009;-79
2023/01/23 04:08:43;;;;;;;5.30;3.20;;;1.90;99.90;;;;;;6220369;23;20011;-78
2023/01/23 04:11:10;;;;;;;4.70;2.78;;;1.90;99.90;;;;;;6221601;23;20001;-77
2023/01/23 04:13:37;;;;;;;4.68;3.25;;;1.90;99.90;;;;;;6220720;23;20001;-77
2023/01/23 04:16:04;;;;;;;4.93;2.85;;;2.00;99.90;;;;;;6221635;23;20066;-77
2023/01/23 04:18:30;;;;;;;4.22;2.67;;;2.00;99.90;;;;;;6221760;23;20074;-76
2023/01/23 04:20:56;;;;;;;4.38;3.03;;;2.00;99.90;;;;;;6220643;23;20001;-76
2023/01/23 04:23:21;;;;;;;5.18;3.47;;;2.00;99.90;;;;;;6220551;23;20083;-76
2023/01/23 04:25:47;;;;;;;6.03;3.38;;;2.10;99.90;;;;;;6221444;23;20003;-76
2023/01/23 04:28:14;;;;;;;6.05;3.20;;;2.10;99.90;;;;;;6221506;23;20003;-76
2023/01/23 04:30:39;;;;;;;5.85;3.17;;;2.00;99.90;;;;;;6221643;23;20429;-77
2023/01/23 04:33:06;;;;;;;5.35;3.78;;;1.90;99.90;;;;;;6221721;23;20023;-77
2023/01/23 04:35:34;;;;;;;6.57;3.70;;;2.00;99.90;;;;;;6221614;23;19997;-77
2023/01/23 04:38:00;;;;;;;6.18;3.60;;;2.00;99.90;;;;;;6219998;23;20062;-78
2023/01/23 04:40:26;;;;;;;5.95;3.88;;;1.90;99.90;;;;;;6221275;23;20000;-78
2023/01/23 04:42:51;;;;;;;5.65;3.75;;;1.90;99.90;;;;;;6219828;23;20001;-78
2023/01/23 04:45:17;;;;;;;5.78;3.58;;;1.90;99.90;;;;;;6221757;23;20047;-78
2023/01/23 04:47:43;;;;;;;5.80;3.28;;;1.90;99.90;;;;;;6221624;23;20008;-77
2023/01/23 04:50:09;;;;;;;5.13;3.05;;;1.90;99.90;;;;;;6221732;23;20366;-77
2023/01/23 04:52:35;;;;;;;6.65;3.33;;;1.90;99.90;;;;;;6221691;23;20080;-78
2023/01/23 04:55:00;;;;;;;4.10;3.08;;;2.00;99.90;;;;;;6221438;23;20007;-78
2023/01/23 04:57:26;;;;;;;4.95;3.10;;;1.90;99.90;;;;;;6220225;23;20374;-78
2023/01/23 04:59:52;;;;;;;5.35;3.20;;;1.90;99.90;;;;;;6219997;23;20440;-78
2023/01/23 05:02:17;;;;;;;4.75;3.22;;;1.90;99.90;;;;;;6221118;23;20016;-78
2023/01/23 05:04:44;;;;;;;6.20;3.65;;;1.90;99.90;;;;;;6221584;23;20334;-78
2023/01/23 05:07:11;;;;;;;3.95;2.95;;;1.90;99.90;;;;;;6220068;23;20005;-78
2023/01/23 05:09:37;;;;;;;5.88;3.38;;;1.90;99.90;;;;;;6221522;23;20028;-78
2023/01/23 05:12:04;;;;;;;5.60;3.33;;;1.90;99.90;;;;;;6219718;23;20005;-78
2023/01/23 05:14:29;;;;;;;6.53;3.92;;;1.80;99.90;;;;;;6221318;23;20004;-77
2023/01/23 05:16:55;;;;;;;5.28;3.25;;;1.80;99.90;;;;;;6221059;23;20076;-78
2023/01/23 05:19:21;;;;;;;5.55;3.10;;;1.80;99.90;;;;;;6221169;23;20054;-77
2023/01/23 05:21:47;;;;;;;4.72;3.45;;;1.80;99.90;;;;;;6221349;23;20001;-77
2023/01/23 05:24:13;;;;;;;5.68;3.35;;;1.80;99.90;;;;;;6221529;23;20413;-78
2023/01/23 05:26:39;;;;;;;5.55;3.88;;;1.80;99.90;;;;;;6221098;23;20012;-78
2023/01/23 05:29:04;;;;;;;5.97;3.75;;;1.80;99.90;;;;;;6221285;23;20016;-77
2023/01/23 05:31:30;;;;;;;6.28;3.88;;;1.80;99.90;;;;;;6221164;23;20004;-77
2023/01/23 05:33:56;;;;;;;5.00;3.10;;;1.80;99.90;;;;;;6221339;23;20028;-77
2023/01/23 05:36:22;;;;;;;5.55;3.45;;;1.80;99.90;;;;;;6221330;23;20338;-77
2023/01/23 05:38:47;;;;;;;4.95;3.60;;;1.70;99.90;;;;;;6221209;23;20468;-77
2023/01/23 05:41:13;;;;;;;5.75;3.60;;;1.80;99.90;;;;;;6220976;23;20001;-76
2023/01/23 05:43:39;;;;;;;5.68;3.80;;;1.80;99.90;;;;;;6221237;23;20071;-76
2023/01/23 05:46:04;;;;;;;4.82;3.28;;;1.80;99.90;;;;;;6221269;23;20495;-76
2023/01/23 05:48:30;;;;;;;6.05;3.22;;;1.80;99.90;;;;;;6220954;23;20008;-77
2023/01/23 05:50:56;;;;;;;5.70;3.35;;;1.80;99.90;;;;;;6221243;23;20051;-77
2023/01/23 05:53:22;;;;;;;6.10;3.25;;;1.80;99.90;;;;;;6220831;23;20071;-77
2023/01/23 05:55:47;;;;;;;6.13;3.75;;;1.70;99.90;;;;;;6219290;23;20038;-77
2023/01/23 05:58:13;;;;;;;5.13;3.13;;;1.80;99.90;;;;;;6221019;23;20334;-76
2023/01/23 06:00:39;;;;;;;5.65;3.88;;;1.70;99.90;;;;;;6220392;23;20072;-77
2023/01/23 06:03:05;;;;;;;4.13;2.88;;;1.70;99.90;;;;;;6220572;23;20001;-75
2023/01/23 06:05:31;;;;;;;5.82;3.35;;;1.70;99.90;;;;;;6220865;23;20005;-74
2023/01/23 06:07:57;;;;;;;3.20;2.33;;;1.70;99.90;;;;;;6219216;23;20005;-76
2023/01/23 06:10:23;;;;;;;5.45;3.40;;;1.70;99.90;;;;;;6220539;23;19996;-76
2023/01/23 06:12:48;;;;;;;5.53;3.20;;;1.80;99.90;;;;;;6218828;23;20008;-76
2023/01/23 06:15:14;;;;;;;4.38;2.88;;;1.80;99.90;;;;;;6221092;23;20059;-76
2023/01/23 06:17:40;;;;;;;5.53;3.33;;;1.80;99.90;;;;;;6220326;23;20024;-76
2023/01/23 06:20:06;;;;;;;5.82;3.60;;;1.80;99.90;;;;;;6220651;23;20000;-77
2023/01/23 06:22:32;;;;;;;4.97;3.20;;;1.90;99.90;;;;;;6218872;23;20001;-77
2023/01/23 06:24:57;;;;;;;5.32;3.17;;;1.90;99.90;;;;;;6220457;23;20511;-77
2023/01/23 06:27:23;;;;;;;5.47;3.35;;;1.90;99.90;;;;;;6220387;23;20008;-77
2023/01/23 06:29:49;;;;;;;5.45;3.22;;;1.90;99.90;;;;;;6220716;23;20019;-77
2023/01/23 06:32:14;;;;;;;5.82;3.50;;;1.90;99.90;;;;;;6220294;23;20091;-76
2023/01/23 06:34:40;;;;;;;4.30;2.90;;;2.00;99.90;;;;;;6220410;23;20004;-76
2023/01/23 06:37:06;;;;;;;5.80;3.70;;;2.00;99.90;;;;;;6218811;23;20015;-76
2023/01/23 06:39:33;;;;;;;4.22;2.65;;;2.00;99.90;;;;;;6219739;23;20437;-76
2023/01/23 06:41:59;;;;;;;5.78;3.55;;;2.00;99.90;;;;;;6220103;23;20007;-76
2023/01/23 06:44:24;;;;;;;5.32;3.38;;;2.00;99.90;;;;;;6220383;23;19997;-77
2023/01/23 06:46:51;;;;;;;5.88;3.58;;;1.90;99.90;;;;;;6219711;23;20005;-76
2023/01/23 06:49:17;;;;;;;5.03;3.67;;;1.90;99.90;;;;;;6220173;23;20004;-77
2023/01/23 06:51:43;;;;;;;5.45;3.33;;;1.80;99.90;;;;;;6220087;23;20338;-77
2023/01/23 06:54:08;;;;;;;4.88;3.38;;;1.80;99.90;;;;;;6220162;23;20008;-77
2023/01/23 06:56:34;;;;;;;6.57;3.47;;;1.80;99.90;;;;;;6219580;23;20445;-77
2023/01/23 06:59:00;;;;;;;5.60;3.47;;;1.80;99.90;;;;;;6220218;23;20326;-78
2023/01/23 07:01:25;;;;;;;6.68;3.42;;;1.80;99.90;;;;;;6219596;23;19997;-77
2023/01/23 07:03:51;;;;;;;5.10;3.40;;;1.80;99.90;;;;;;6220180;23;20008;-77
2023/01/23 07:06:17;;;;;;;5.20;2.97;;;1.70;99.90;;;;;;6220027;23;20028;-76
2023/01/23 07:08:43;;;;;;;4.57;3.35;;;1.70;99.90;;;;;;6218417;23;20027;-77
2023/01/23 07:11:09;;;;;;;5.07;3.00;;;1.70;99.90;;;;;;6219000;23;20011;-77
2023/01/23 07:13:34;;;;;;;4.97;2.88;;;1.60;99.90;;;;;;6218809;23;20040;-77
2023/01/23 07:16:01;;;;;;;3.83;2.60;;;1.70;99.90;;;;;;6220040;23;20054;-77
2023/01/23 07:18:28;;;;;;;6.03;3.40;;;1.70;99.90;;;;;;6217947;23;20005;-77
2023/01/23 07:20:54;;;;;;;4.78;3.15;;;1.60;99.90;;;;;;6215584;23;20001;-78
2023/01/23 07:23:20;;;;;;;5.22;3.35;;;1.60;99.90;;;;;;6216557;23;20004;-76
2023/01/23 07:25:46;;;;;;;5.18;3.20;;;1.60;99.90;;;;;;6218983;23;20028;-77
2023/01/23 07:28:12;;;;;;;5.57;3.05;;;1.60;99.90;;;;;;6220383;23;20001;-77
2023/01/23 07:30:38;;;;;;;5.20;2.95;;;1.60;99.90;;;;;;6221107;23;20016;-77
2023/01/23 07:33:04;;;;;;;4.07;2.80;;;1.50;99.90;;;;;;6220946;23;20007;-76
2023/01/23 07:35:30;;;;;;;4.97;3.28;;;1.60;99.90;;;;;;6221067;23;20544;-75
2023/01/23 07:37:56;;;;;;;6.80;3.58;;;1.60;99.90;;;;;;6221566;23;20004;-76
2023/01/23 07:40:22;;;;;;;5.90;3.50;;;1.50;99.90;;;;;;6221042;23;20000;-80
2023/01/23 07:42:48;;;;;;;4.20;3.10;;;1.60;99.90;;;;;;6221658;23;20413;-82
2023/01/23 07:45:13;;;;;;;4.80;3.17;;;1.60;99.90;;;;;;6220482;23;20000;-80
2023/01/23 07:47:39;;;;;;;4.05;2.97;;;1.60;99.90;;;;;;6221521;23;20005;-76
2023/01/23 07:50:10;;;;;;;5.18;3.00;;;1.60;99.90;;;;;;6221226;23;20000;-81
2023/01/23 07:52:36;;;;;;;5.28;3.50;;;1.60;99.90;;;;;;6217052;23;20015;-83
2023/01/23 07:55:02;;;;;;;4.70;3.15;;;1.70;99.90;;;;;;6219686;23;20004;-80
2023/01/23 07:57:28;;;;;;;8.75;4.30;;;1.60;99.90;;;;;;6218448;23;20008;-83
2023/01/23 07:59:54;;;;;;;5.75;3.83;;;1.60;99.90;;;;;;6219084;23;20001;-82
2023/01/23 08:02:19;;;;;;;5.40;3.20;;;1.60;99.90;;;;;;6221411;23;20004;-85
2023/01/23 08:04:45;;;;;;;5.30;3.30;;;1.70;99.90;;;;;;6219674;23;20000;-83
2023/01/23 08:07:11;;;;;;;4.72;3.03;;;1.70;99.90;;;;;;6214608;23;20453;-83
2023/01/23 08:09:37;;;;;;;5.07;3.15;;;1.70;99.90;;;;;;6218461;23;20453;-75
2023/01/23 08:12:04;;;;;;;4.53;3.25;;;1.70;99.90;;;;;;6219342;23;20335;-80
2023/01/23 08:14:29;;;;;;;6.97;3.28;;;1.70;99.90;;;;;;6218256;23;20011;-75
2023/01/23 08:16:55;;;;;;;6.43;3.25;;;1.70;99.90;;;;;;6221168;23;20009;-74
2023/01/23 08:19:21;;;;;;;4.63;3.10;;;1.70;99.90;;;;;;6218572;23;20066;-76
2023/01/23 08:21:46;;;;;;;7.57;3.42;;;1.70;99.90;;;;;;6221217;23;19997;-76
2023/01/23 08:24:13;;;;;;;4.18;2.75;;;1.70;99.90;;;;;;6218802;23;20007;-75
2023/01/23 08:26:39;;;;;;;5.13;3.10;;;1.70;99.90;;;;;;6221139;23;20357;-75
2023/01/23 08:29:05;;;;;;;5.25;3.25;;;1.70;99.90;;;;;;6221439;23;20017;-78
2023/01/23 08:31:31;;;;;;;4.88;3.25;;;1.80;99.90;;;;;;6221068;23;20011;-76
2023/01/23 08:33:56;;;;;;;6.95;3.78;;;1.70;99.90;;;;;;6221192;23;20000;-75
2023/01/23 08:36:22;;;;;;;6.07;3.40;;;1.80;99.90;;;;;;6220245;23;20005;-75
2023/01/23 08:38:47;;;;;;;4.20;2.90;;;1.80;99.90;;;;;;6220063;23;20054;-76
2023/01/23 08:41:15;;;;;;;4.85;3.08;;;1.80;99.90;;;;;;6218986;23;20342;-77
2023/01/23 08:43:41;;;;;;;5.32;3.10;;;1.80;99.90;;;;;;6219744;23;20020;-75
2023/01/23 08:46:08;;;;;;;4.88;3.47;;;1.80;99.90;;;;;;6220225;23;20000;-78
2023/01/23 08:48:34;;;;;;;5.53;2.78;;;1.80;99.90;;;;;;6219218;23;20055;-79
2023/01/23 08:51:05;;;;;;;6.10;3.65;;;1.80;99.90;;;;;;6219015;23;20100;-79
2023/01/23 08:53:32;;;;;;;4.50;3.20;;;1.90;99.90;;;;;;6219492;23;20004;-78
2023/01/23 08:56:06;;;;;;;5.70;3.35;;;1.90;99.90;;;;;;6218114;23;20009;-74
2023/01/23 08:58:32;;;;;;;5.00;3.33;;;2.00;99.90;;;;;;6221079;23;20005;-74
2023/01/23 09:00:59;;;;;;;5.15;3.33;;;2.00;99.90;;;;;;6219100;23;20171;-74
2023/01/23 09:03:25;;;;;;;6.45;3.42;;;2.00;99.90;;;;;;6219920;23;19997;-79
2023/01/23 09:05:51;;;;;;;4.97;2.83;;;2.00;99.90;;;;;;6220952;23;19997;-79
2023/01/23 09:08:16;;;;;;;3.97;2.88;;;2.10;99.90;;;;;;6221329;23;20453;-77
2023/01/23 09:10:42;;;;;;;5.22;3.05;;;2.10;99.90;;;;;;6220801;23;20338;-79
2023/01/23 09:13:08;;;;;;;4.78;3.25;;;2.10;99.90;;;;;;6221609;23;20004;-77
2023/01/23 09:15:36;;;;;;;4.28;3.40;;;2.10;99.90;;;;;;6220962;23;20004;-78
2023/01/23 09:18:02;;;;;;;4.53;3.42;;;2.20;99.90;;;;;;6220889;23;20027;-78
2023/01/23 09:20:28;;;;;;;4.00;3.00;;;2.20;99.90;;;;;;6221106;23;20025;-78
2023/01/23 09:22:53;;;;;;;5.43;3.83;;;2.20;99.90;;;;;;6219934;23;20086;-79
2023/01/23 09:25:19;;;;;;;4.63;2.92;;;2.20;99.90;;;;;;6218861;23;20015;-78
2023/01/23 09:27:45;;;;;;;3.88;2.95;;;2.30;99.90;;;;;;6221590;23;20005;-79
2023/01/23 09:30:11;;;;;;;5.28;3.38;;;2.30;99.90;;;;;;6221067;23;20016;-80
2023/01/23 09:32:36;;;;;;;4.57;3.47;;;2.30;99.90;;;;;;6221187;23;20024;-77
2023/01/23 09:35:03;;;;;;;5.50;3.47;;;2.40;99.90;;;;;;6221102;23;20381;-78
2023/01/23 09:37:58;;;;;;;4.97;3.67;;;2.40;99.90;;;;;;6219505;23;20019;-78
2023/01/23 09:40:17;;;;;;;5.50;3.78;;;2.40;99.90;;;;;;6220531;23;20455;-77
2023/01/23 09:42:43;;;;;;;4.57;3.10;;;2.40;99.90;;;;;;6221093;23;20004;-76
2023/01/23 09:45:13;;;;;;;6.35;3.92;;;2.50;99.90;;;;;;6219266;23;20005;-77
2023/01/23 09:48:02;;;;;;;5.45;4.03;;;2.50;99.90;;;;;;6221003;23;20083;-77
2023/01/23 09:50:35;;;;;;;5.40;3.33;;;2.50;99.90;;;;;;6220485;23;20060;-75
2023/01/23 09:53:10;;;;;;;4.32;2.97;;;2.50;99.90;;;;;;6219116;23;20005;-77
2023/01/23 09:55:55;;;;;;;6.85;3.47;;;2.60;99.90;;;;;;6220843;23;20062;-78
2023/01/23 09:58:36;;;;;;;5.57;3.55;;;2.60;99.90;;;;;;6221368;23;20001;-79
2023/01/23 10:01:02;;;;;;;4.95;3.53;;;2.60;99.90;;;;;;6220198;23;20001;-77
2023/01/23 10:03:31;;;;;;;4.93;3.42;;;2.70;99.90;;;;;;6220179;23;20080;-75
2023/01/23 10:06:07;;;;;;;4.15;2.85;;;2.70;99.90;;;;;;6220610;23;20028;-76
2023/01/23 10:08:33;;;;;;;4.88;3.50;;;2.80;99.90;;;;;;6219160;23;20005;-77
2023/01/23 10:11:16;;;;;;;4.45;3.30;;;2.80;99.90;;;;;;6219015;23;20102;-76
2023/01/23 10:14:02;;;;;;;4.30;3.10;;;2.80;99.90;;;;;;6220773;23;19997;-76
2023/01/23 10:16:36;;;;;;;4.28;2.88;;;2.90;99.90;;;;;;6219738;23;20011;-75
2023/01/23 10:19:23;;;;;;;3.90;2.85;;;2.90;99.90;;;;;;6220860;23;20020;-77
2023/01/23 10:22:03;;;;;;;4.97;3.20;;;2.90;99.90;;;;;;6218775;23;20008;-78
2023/01/23 10:24:46;;;;;;;5.70;3.20;;;2.90;99.90;;;;;;6218938;23;20001;-78
2023/01/23 10:27:21;;;;;;;4.72;3.50;;;2.90;99.90;;;;;;6220475;23;20080;-78
2023/01/23 10:29:55;;;;;;;4.50;3.03;;;3.00;99.90;;;;;;6220251;23;20008;-78
2023/01/23 10:32:27;;;;;;;4.60;3.30;;;3.00;99.90;;;;;;6220322;23;20000;-77
2023/01/23 10:34:55;;;;;;;5.93;3.80;;;3.00;99.90;;;;;;6220794;23;20504;-77
2023/01/23 10:37:26;;;;;;;4.45;2.90;;;3.00;99.90;;;;;;6219657;23;20004;-78
2023/01/23 10:40:06;;;;;;;4.40;2.80;;;3.10;99.90;;;;;;6218502;23;20393;-75
2023/01/23 10:42:32;;;;;;;4.15;2.80;;;3.10;99.90;;;;;;6218850;23;20433;-77
2023/01/23 10:44:58;;;;;;;3.55;2.60;;;3.20;99.90;;;;;;6219579;23;20001;-78
2023/01/23 10:47:41;;;;;;;4.10;2.72;;;3.20;99.90;;;;;;6218030;23;20008;-77
2023/01/23 10:50:08;;;;;;;3.53;2.28;;;3.30;99.90;;;;;;6220562;23;20001;-77
2023/01/23 10:52:38;;;;;;;3.88;2.97;;;3.30;99.90;;;;;;6219951;23;20001;-78
2023/01/23 10:55:23;;;;;;;2.97;2.55;;;3.30;99.90;;;;;;6218734;23;20014;-76
2023/01/23 10:57:54;;;;;;;3.63;2.63;;;3.30;99.90;;;;;;6220156;23;20012;-76
2023/01/23 11:00:35;;;;;;;4.00;2.65;;;3.30;99.90;;;;;;6220419;23;20062;-76
2023/01/23 11:03:19;;;;;;;3.95;2.75;;;3.40;99.90;;;;;;6218206;23;20001;-75
2023/01/23 11:06:00;;;;;;;3.47;2.65;;;3.40;99.90;;;;;;6220021;23;20449;-76
2023/01/23 11:08:39;;;;;;;4.78;3.08;;;3.50;99.90;;;;;;6219864;23;19996;-75
2023/01/23 11:11:14;;;;;;;4.80;3.20;;;3.50;99.90;;;;;;6220304;23;20000;-77
2023/01/23 11:13:41;;;;;;;3.85;3.08;;;3.50;99.90;;;;;;6219856;23;20017;-76
2023/01/23 11:16:12;;;;;;;5.20;3.08;;;3.50;99.90;;;;;;6219893;23;20001;-72
2023/01/23 11:18:42;;;;;;;3.75;2.88;;;3.50;99.90;;;;;;6219894;23;20001;-72
2023/01/23 11:21:29;;;;;;;4.53;2.58;;;3.50;99.90;;;;;;6220176;23;19996;-70
2023/01/23 11:24:28;;;;;;;3.60;2.50;;;3.50;99.90;;;;;;6218285;23;20031;-77
2023/01/23 11:27:14;;;;;;;3.85;2.85;;;3.60;99.90;;;;;;6219896;23;20016;-73
2023/01/23 11:29:57;;;;;;;4.68;2.90;;;3.60;99.90;;;;;;6219516;23;20016;-72
2023/01/23 11:32:24;;;;;;;3.97;2.60;;;3.60;99.90;;;;;;6219825;23;20445;-71
2023/01/23 11:34:52;;;;;;;4.10;3.08;;;3.60;99.90;;;;;;6218561;23;20014;-72
2023/01/23 11:37:23;;;;;;;4.72;2.92;;;3.60;99.90;;;;;;6218178;23;20024;-73
2023/01/23 11:40:17;;;;;;;5.03;3.33;;;3.60;99.90;;;;;;6219895;23;20453;-71
2023/01/23 11:42:43;;;;;;;4.65;2.85;;;3.60;99.90;;;;;;6220039;23;20023;-72
2023/01/23 11:45:31;;;;;;;4.70;3.63;;;3.70;99.90;;;;;;6218877;23;20029;-72
2023/01/23 11:48:13;;;;;;;4.35;3.20;;;3.70;99.90;;;;;;6219270;23;20377;-71
2023/01/23 11:50:58;;;;;;;4.25;3.10;;;3.70;99.90;;;;;;6220195;23;20016;-71
2023/01/23 11:53:52;;;;;;;4.63;3.45;;;3.70;99.90;;;;;;6219851;23;20000;-76
2023/01/23 11:56:29;;;;;;;5.78;3.03;;;3.80;99.90;;;;;;6219922;23;20011;-76
2023/01/23 11:59:08;;;;;;;5.38;2.88;;;3.80;99.90;;;;;;6218397;23;20330;-73
2023/01/23 12:02:02;;;;;;;5.20;3.60;;;3.80;99.90;;;;;;6219716;23;20099;-73
2023/01/23 12:04:51;;;;;;;4.35;3.10;;;3.80;99.90;;;;;;6218051;23;20004;-73
2023/01/23 12:07:24;;;;;;;4.68;3.38;;;3.90;99.90;;;;;;6188359;23;20402;-78
2023/01/23 12:09:55;;;;;;;6.00;3.13;;;3.90;99.90;;;;;;6217564;23;20449;-78
2023/01/23 12:12:23;;;;;;;4.70;2.95;;;3.90;99.90;;;;;;6221788;23;20221;-77
2023/01/23 12:15:15;;;;;;;4.18;2.88;;;4.00;99.90;;;;;;6221253;23;20354;-77
2023/01/23 12:18:06;;;;;;;4.13;2.58;;;4.10;99.90;;;;;;6219858;23;20008;-77
2023/01/23 12:20:51;;;;;;;4.32;2.78;;;4.10;99.90;;;;;;6219542;23;20004;-77
2023/01/23 12:23:35;;;;;;;3.97;2.63;;;4.20;99.90;;;;;;6220345;23;20007;-76
2023/01/23 12:26:15;;;;;;;3.60;3.00;;;4.20;99.90;;;;;;6221108;23;20418;-75
2023/01/23 12:29:22;;;;;;;4.20;3.17;;;4.20;99.90;;;;;;6219552;23;20103;-75
2023/01/23 12:32:14;;;;;;;3.92;2.75;;;4.20;99.90;;;;;;6221111;23;20008;-75
2023/01/23 12:35:10;;;;;;;4.43;2.55;;;4.20;99.90;;;;;;6219317;23;20008;-76
2023/01/23 12:37:47;;;;;;;4.13;3.03;;;4.30;99.90;;;;;;6221601;23;20016;-76
2023/01/23 12:40:40;;;;;;;3.85;2.65;;;4.30;99.90;;;;;;6219546;23;20326;-75
2023/01/23 12:43:30;;;;;;;3.33;2.35;;;4.30;99.90;;;;;;6197047;23;20001;-75
2023/01/23 12:46:04;;;;;;;3.50;2.60;;;4.40;99.90;;;;;;6220721;23;20008;-77
2023/01/23 12:48:44;;;;;;;4.38;3.28;;;4.40;99.90;;;;;;6221441;23;19996;-76
2023/01/23 12:51:17;;;;;;;4.32;3.08;;;4.40;99.90;;;;;;6221775;23;20023;-76
2023/01/23 12:53:47;;;;;;;3.72;2.70;;;4.50;99.90;;;;;;6220758;23;20035;-78
2023/01/23 12:56:17;;;;;;;4.85;2.75;;;4.50;99.90;;;;;;6219608;23;20000;-76
2023/01/23 12:58:56;;;;;;;4.60;2.95;;;4.50;99.90;;;;;;6221227;23;19996;-77
2023/01/23 13:01:56;;;;;;;4.88;3.28;;;4.60;99.90;;;;;;6220365;23;20058;-74
2023/01/23 13:04:41;;;;;;;3.88;2.70;;;4.60;99.90;;;;;;6210211;23;20005;-76
2023/01/23 13:07:45;;;;;;;3.83;2.97;;;4.60;99.90;;;;;;6221328;23;20000;-76
2023/01/23 13:13:23;;;;;;;3.47;2.70;;;4.70;99.90;;;;;;6221083;23;20115;-76
2023/01/23 13:16:26;;;;;;;3.83;2.63;;;4.70;99.90;;;;;;6219407;23;20438;-71
2023/01/23 13:22:12;;;;;;;4.68;3.17;;;4.70;99.90;;;;;;6221190;23;20498;-74
2023/01/23 13:27:38;;;;;;;4.22;3.08;;;4.70;99.90;;;;;;6222986;23;20032;-74
2023/01/23 13:30:24;;;;;;;3.75;3.05;;;4.70;99.90;;;;;;6221721;23;20016;-75